createdAt,value
2019-05-02T00:00:05.953Z,99.99
2019-05-02T00:01:05.981Z,99.99
2019-05-02T00:02:05.930Z,99.99
2019-05-02T00:03:05.923Z,99.99
2019-05-02T00:04:05.911Z,99.99
2019-05-02T00:05:05.902Z,99.99
2019-05-02T00:06:07.370Z,99.99
2019-05-02T00:07:05.875Z,99.99
2019-05-02T00:08:05.859Z,99.99
2019-05-02T00:09:09.145Z,99.99
2019-05-02T00:10:06.843Z,99.99
2019-05-02T00:11:05.853Z,99.99
2019-05-02T00:12:05.832Z,99.99
2019-05-02T00:13:05.812Z,99.99
2019-05-02T00:14:05.798Z,99.99
2019-05-02T00:15:05.787Z,99.99
2019-05-02T00:16:09.136Z,99.99
2019-05-02T00:17:06.773Z,99.99
2019-05-02T00:18:05.751Z,99.99
2019-05-02T00:19:09.055Z,99.99
2019-05-02T00:20:06.728Z,99.99
2019-05-02T00:21:05.728Z,99.99
2019-05-02T00:22:05.759Z,99.99
2019-05-02T00:23:05.706Z,99.99
2019-05-02T00:24:05.700Z,99.99
2019-05-02T00:25:05.676Z,99.99
2019-05-02T00:26:05.678Z,99.99
2019-05-02T00:27:05.680Z,99.99
2019-05-02T00:28:07.823Z,99.99
2019-05-02T00:29:06.657Z,99.99
2019-05-02T00:30:05.636Z,99.99
2019-05-02T00:31:07.475Z,99.99
2019-05-02T00:32:06.627Z,99.99
2019-05-02T00:33:05.596Z,99.99
2019-05-02T00:34:05.619Z,99.99
2019-05-02T00:35:05.568Z,99.99
2019-05-02T00:36:05.568Z,99.99
2019-05-02T00:37:05.580Z,99.99
2019-05-02T00:38:05.547Z,99.99
2019-05-02T00:39:09.510Z,99.99
2019-05-02T00:40:06.515Z,99.99
2019-05-02T00:41:05.527Z,99.99
2019-05-02T00:42:12.429Z,99.99
2019-05-02T00:43:06.505Z,99.99
2019-05-02T00:44:06.092Z,99.99
2019-05-02T00:45:06.470Z,99.99
2019-05-02T00:46:05.462Z,99.99
2019-05-02T00:47:06.108Z,99.99
2019-05-02T00:48:06.447Z,99.99
2019-05-02T00:49:05.423Z,99.99
2019-05-02T00:50:06.188Z,99.99
2019-05-02T00:51:06.407Z,99.99
2019-05-02T00:52:05.397Z,99.99
2019-05-02T00:53:07.292Z,99.99
2019-05-02T00:54:06.392Z,99.99
2019-05-02T00:55:05.356Z,99.99
2019-05-02T00:56:09.169Z,99.99
2019-05-02T00:57:06.327Z,99.99
2019-05-02T00:58:05.357Z,99.99
2019-05-02T00:59:07.423Z,99.99
2019-05-02T01:00:05.307Z,99.99
2019-05-02T01:01:05.300Z,99.99
2019-05-02T01:02:07.086Z,99.99
2019-05-02T01:03:05.286Z,99.99
2019-05-02T01:04:05.265Z,99.99
2019-05-02T01:05:05.268Z,99.99
2019-05-02T01:06:05.248Z,99.99
2019-05-02T01:07:05.224Z,99.99
2019-05-02T01:08:05.224Z,99.99
2019-05-02T01:09:05.780Z,99.99
2019-05-02T01:10:06.202Z,99.99
2019-05-02T01:11:05.184Z,99.99
2019-05-02T01:12:08.282Z,99.99
2019-05-02T01:13:05.170Z,99.99
2019-05-02T01:14:05.151Z,99.99
2019-05-02T01:15:08.389Z,99.99
2019-05-02T01:16:05.144Z,99.99
2019-05-02T01:17:05.126Z,99.99
2019-05-02T01:18:06.127Z,99.99
2019-05-02T01:19:05.093Z,99.99
2019-05-02T01:20:05.095Z,99.99
2019-05-02T01:21:05.104Z,99.99
2019-05-02T01:22:05.098Z,99.99
2019-05-02T01:23:05.055Z,99.99
2019-05-02T01:24:05.055Z,99.99
2019-05-02T01:25:05.050Z,99.99
2019-05-02T01:26:05.034Z,99.99
2019-05-02T01:27:06.501Z,99.99
2019-05-02T01:28:05.011Z,99.99
2019-05-02T01:29:04.992Z,99.99
2019-05-02T01:30:06.080Z,99.99
2019-05-02T01:31:04.999Z,99.99
2019-05-02T01:32:04.972Z,99.99
2019-05-02T01:33:06.396Z,99.99
2019-05-02T01:34:04.940Z,99.99
2019-05-02T01:35:04.953Z,99.99
2019-05-02T01:36:06.393Z,99.99
2019-05-02T01:37:04.935Z,99.99
2019-05-02T01:38:04.909Z,99.99
2019-05-02T01:39:07.503Z,99.99
2019-05-02T01:40:04.881Z,99.99
2019-05-02T01:41:04.874Z,99.99
2019-05-02T01:42:05.442Z,99.99
2019-05-02T01:43:04.854Z,99.99
2019-05-02T01:44:04.850Z,99.99
2019-05-02T01:45:06.747Z,99.99
2019-05-02T01:46:05.819Z,99.99
2019-05-02T01:47:04.798Z,99.99
2019-05-02T01:48:04.954Z,99.99
2019-05-02T01:49:04.820Z,99.99
2019-05-02T01:50:04.767Z,99.99
2019-05-02T01:51:10.070Z,99.99
2019-05-02T01:52:05.763Z,99.99
2019-05-02T01:53:04.739Z,99.99
2019-05-02T01:54:05.097Z,99.99
2019-05-02T01:55:04.727Z,99.99
2019-05-02T01:56:04.715Z,99.99
2019-05-02T01:57:08.622Z,99.99
2019-05-02T01:58:05.682Z,99.99
2019-05-02T01:59:04.703Z,99.99
2019-05-02T02:00:09.377Z,99.99
2019-05-02T02:01:05.663Z,99.99
2019-05-02T02:02:04.648Z,99.99
2019-05-02T02:03:09.050Z,99.99
2019-05-02T02:04:05.637Z,99.99
2019-05-02T02:05:04.633Z,99.99
2019-05-02T02:06:08.120Z,99.99
2019-05-02T02:07:05.594Z,99.99
2019-05-02T02:08:04.571Z,99.99
2019-05-02T02:09:08.435Z,99.99
2019-05-02T02:10:05.577Z,99.99
2019-05-02T02:11:04.587Z,99.99
2019-05-02T02:12:04.914Z,99.99
2019-05-02T02:13:05.285Z,99.99
2019-05-02T02:14:07.429Z,99.99
2019-05-02T02:15:05.505Z,99.99
2019-05-02T02:16:05.847Z,99.99
2019-05-02T02:17:04.516Z,99.99
2019-05-02T02:18:04.475Z,99.99
2019-05-02T02:19:05.399Z,99.99
2019-05-02T02:20:04.458Z,99.99
2019-05-02T02:21:04.447Z,99.99
2019-05-02T02:22:04.487Z,99.99
2019-05-02T02:23:04.436Z,99.99
2019-05-02T02:24:04.404Z,99.99
2019-05-02T02:25:04.414Z,99.99
2019-05-02T02:26:06.808Z,99.99
2019-05-02T02:27:05.405Z,99.99
2019-05-02T02:28:04.366Z,99.99
2019-05-02T02:29:07.944Z,99.99
2019-05-02T02:30:04.347Z,99.99
2019-05-02T02:31:07.467Z,99.99
2019-05-02T02:32:04.337Z,99.99
2019-05-02T02:33:07.567Z,99.99
2019-05-02T02:34:04.301Z,99.99
2019-05-02T02:35:10.087Z,99.99
2019-05-02T02:36:05.281Z,99.99
2019-05-02T02:37:05.310Z,99.99
2019-05-02T02:38:05.284Z,99.99
2019-05-02T02:39:06.919Z,99.99
2019-05-02T02:40:05.244Z,99.99
2019-05-02T02:41:06.443Z,99.99
2019-05-02T02:42:05.225Z,99.99
2019-05-02T02:43:22.245Z,99.99
2019-05-02T02:44:05.216Z,99.99
2019-05-02T02:45:04.197Z,99.99
2019-05-02T02:46:04.185Z,99.99
2019-05-02T02:47:04.175Z,99.99
2019-05-02T02:48:04.145Z,99.99
2019-05-02T02:49:04.147Z,99.99
2019-05-02T02:50:05.339Z,99.99
2019-05-02T02:51:04.123Z,99.99
2019-05-02T02:52:05.025Z,99.99
2019-05-02T02:53:04.121Z,99.99
2019-05-02T02:54:05.861Z,99.99
2019-05-02T02:55:04.082Z,99.99
2019-05-02T02:56:04.262Z,99.99
2019-05-02T02:57:04.069Z,99.99
2019-05-02T02:58:04.698Z,99.99
2019-05-02T02:59:04.084Z,99.99
2019-05-02T03:00:07.788Z,99.99
2019-05-02T03:01:05.019Z,99.99
2019-05-02T03:02:10.073Z,99.99
2019-05-02T03:03:04.989Z,99.99
2019-05-02T03:04:09.642Z,99.99
2019-05-02T03:05:04.979Z,99.99
2019-05-02T03:06:05.631Z,99.99
2019-05-02T03:07:03.951Z,99.99
2019-05-02T03:08:05.404Z,99.99
2019-05-02T03:09:03.922Z,99.99
2019-05-02T03:10:06.031Z,99.99
2019-05-02T03:11:03.912Z,99.99
2019-05-02T03:12:04.580Z,99.99
2019-05-02T03:13:03.887Z,99.99
2019-05-02T03:14:07.405Z,99.99
2019-05-02T03:15:04.869Z,99.99
2019-05-02T03:16:07.068Z,99.99
2019-05-02T03:17:04.839Z,99.99
2019-05-02T03:18:03.834Z,99.99
2019-05-02T03:19:03.823Z,99.99
2019-05-02T03:20:04.021Z,99.99
2019-05-02T03:21:03.856Z,99.99
2019-05-02T03:22:04.187Z,99.99
2019-05-02T03:23:03.789Z,99.99
2019-05-02T03:24:05.814Z,99.99
2019-05-02T03:25:03.752Z,99.99
2019-05-02T03:26:07.847Z,99.99
2019-05-02T03:27:04.716Z,99.99
2019-05-02T03:28:03.751Z,99.99
2019-05-02T03:29:03.742Z,99.99
2019-05-02T03:30:03.690Z,99.99
2019-05-02T03:31:20.963Z,99.99
2019-05-02T03:32:14.401Z,99.99
2019-05-02T03:33:10.250Z,99.99
2019-05-02T03:34:04.703Z,99.99
2019-05-02T03:35:03.655Z,99.99
2019-05-02T03:36:03.635Z,99.99
2019-05-02T03:37:10.688Z,99.99
2019-05-02T03:38:04.608Z,99.99
2019-05-02T03:39:13.582Z,99.99
2019-05-02T03:40:04.606Z,99.99
2019-05-02T03:41:03.590Z,99.99
2019-05-02T03:42:04.976Z,99.99
2019-05-02T03:43:03.571Z,99.99
2019-05-02T03:44:11.370Z,99.99
2019-05-02T03:45:05.276Z,99.99
2019-05-02T03:46:03.535Z,99.99
2019-05-02T03:47:04.990Z,99.99
2019-05-02T03:48:03.539Z,99.99
2019-05-02T03:49:07.376Z,99.99
2019-05-02T03:50:08.343Z,99.99
2019-05-02T03:51:05.215Z,99.99
2019-05-02T03:52:05.901Z,99.99
2019-05-02T03:53:03.450Z,99.99
2019-05-02T03:54:07.785Z,99.99
2019-05-02T03:55:04.450Z,99.99
2019-05-02T03:56:10.604Z,99.99
2019-05-02T03:57:04.419Z,99.99
2019-05-02T03:58:12.860Z,99.99
2019-05-02T03:59:04.434Z,99.99
2019-05-02T04:00:03.391Z,99.99
2019-05-02T04:01:03.900Z,99.99
2019-05-02T04:02:03.393Z,99.99
2019-05-02T04:03:03.366Z,99.99
2019-05-02T04:04:03.343Z,99.99
2019-05-02T04:05:03.335Z,99.99
2019-05-02T04:06:03.322Z,99.99
2019-05-02T04:07:03.409Z,99.99
2019-05-02T04:08:05.385Z,99.99
2019-05-02T04:09:05.356Z,99.99
2019-05-02T04:10:04.689Z,99.99
2019-05-02T04:11:03.645Z,99.99
2019-05-02T04:12:03.588Z,99.99
2019-05-02T04:13:03.512Z,99.99
2019-05-02T04:14:14.885Z,99.99
2019-05-02T04:15:04.318Z,99.99
2019-05-02T04:16:14.535Z,99.99
2019-05-02T04:17:04.310Z,99.99
2019-05-02T04:18:08.386Z,99.99
2019-05-02T04:19:04.302Z,99.99
2019-05-02T04:20:09.783Z,99.99
2019-05-02T04:21:04.243Z,99.99
2019-05-02T04:22:08.425Z,99.99
2019-05-02T04:23:04.113Z,99.99
2019-05-02T04:24:12.999Z,99.99
2019-05-02T04:25:06.325Z,99.99
2019-05-02T04:26:06.804Z,99.99
2019-05-02T04:27:04.202Z,99.99
2019-05-02T04:28:05.959Z,99.99
2019-05-02T04:29:04.247Z,99.99
2019-05-02T04:30:11.618Z,99.99
2019-05-02T04:31:04.151Z,99.99
2019-05-02T04:32:10.817Z,99.99
2019-05-02T04:33:04.044Z,99.99
2019-05-02T04:34:14.198Z,99.99
2019-05-02T04:35:03.991Z,99.99
2019-05-02T04:36:14.033Z,99.99
2019-05-02T04:37:04.296Z,99.99
2019-05-02T04:38:09.986Z,99.99
2019-05-02T04:39:05.659Z,99.99
2019-05-02T04:40:07.918Z,99.99
2019-05-02T04:41:03.952Z,99.99
2019-05-02T04:42:13.021Z,99.99
2019-05-02T04:43:08.229Z,99.99
2019-05-02T04:44:04.247Z,99.99
2019-05-02T04:45:21.171Z,99.99
2019-05-02T04:46:09.454Z,99.99
2019-05-02T04:47:13.933Z,99.99
2019-05-02T04:48:04.239Z,99.99
2019-05-02T04:49:02.940Z,99.99
2019-05-02T04:50:08.006Z,99.99
2019-05-02T04:51:10.136Z,99.99
2019-05-02T04:52:10.374Z,99.99
2019-05-02T04:53:03.827Z,99.99
2019-05-02T04:54:02.792Z,99.99
2019-05-02T04:55:14.797Z,99.99
2019-05-02T04:56:06.845Z,99.99
2019-05-02T04:57:03.884Z,99.99
2019-05-02T04:58:03.153Z,99.99
2019-05-02T04:59:14.015Z,99.99
2019-05-02T05:00:08.474Z,99.99
2019-05-02T05:01:03.849Z,99.99
2019-05-02T05:02:02.841Z,99.99
2019-05-02T05:03:07.223Z,99.99
2019-05-02T05:04:03.870Z,99.99
2019-05-02T05:05:02.757Z,99.99
2019-05-02T05:06:10.048Z,99.99
2019-05-02T05:07:03.690Z,99.99
2019-05-02T05:08:02.694Z,99.99
2019-05-02T05:09:04.005Z,99.99
2019-05-02T05:10:03.769Z,99.99
2019-05-02T05:11:02.741Z,99.99
2019-05-02T05:12:02.840Z,99.99
2019-05-02T05:13:02.784Z,99.99
2019-05-02T05:14:02.633Z,99.99
2019-05-02T05:15:02.629Z,99.99
2019-05-02T05:16:02.989Z,99.99
2019-05-02T05:17:02.738Z,99.99
2019-05-02T05:18:04.440Z,99.99
2019-05-02T05:19:03.605Z,99.99
2019-05-02T05:20:10.452Z,99.99
2019-05-02T05:21:03.696Z,99.99
2019-05-02T05:22:04.949Z,99.99
2019-05-02T05:23:02.495Z,99.99
2019-05-02T05:24:02.465Z,99.99
2019-05-02T05:25:02.453Z,99.99
2019-05-02T05:26:04.707Z,99.99
2019-05-02T05:27:02.467Z,99.99
2019-05-02T05:28:05.901Z,99.99
2019-05-02T05:29:02.706Z,99.99
2019-05-02T05:30:09.422Z,99.99
2019-05-02T05:31:03.478Z,99.99
2019-05-02T05:32:05.705Z,99.99
2019-05-02T05:33:03.364Z,99.99
2019-05-02T05:34:02.495Z,99.99
2019-05-02T05:35:03.420Z,99.99
2019-05-02T05:36:03.507Z,99.99
2019-05-02T05:37:03.801Z,99.99
2019-05-02T05:38:03.441Z,99.99
2019-05-02T05:39:03.013Z,99.99
2019-05-02T05:40:03.568Z,99.51
2019-05-02T05:41:03.075Z,99.60
2019-05-02T05:42:03.336Z,99.87
2019-05-02T05:43:11.317Z,99.97
2019-05-02T05:44:03.269Z,99.99
2019-05-02T05:45:03.714Z,99.87
2019-05-02T05:46:10.628Z,99.66
2019-05-02T05:47:03.389Z,99.56
2019-05-02T05:48:02.235Z,99.46
2019-05-02T05:49:02.378Z,98.43
2019-05-02T05:50:02.294Z,97.71
2019-05-02T05:51:02.282Z,98.38
2019-05-02T05:52:03.762Z,98.49
2019-05-02T05:53:02.215Z,98.49
2019-05-02T05:54:03.159Z,97.56
2019-05-02T05:55:04.772Z,97.66
2019-05-02T05:56:02.594Z,97.77
2019-05-02T05:57:02.152Z,97.77
2019-05-02T05:58:12.407Z,97.77
2019-05-02T05:59:03.309Z,97.25
2019-05-02T06:00:03.956Z,96.94
2019-05-02T06:01:03.191Z,96.12
2019-05-02T06:02:05.409Z,96.43
2019-05-02T06:03:13.058Z,96.73
2019-05-02T06:04:03.133Z,96.94
2019-05-02T06:05:03.712Z,96.48
2019-05-02T06:06:02.107Z,95.97
2019-05-02T06:07:03.277Z,96.18
2019-05-02T06:08:01.981Z,95.87
2019-05-02T06:09:01.993Z,95.25
2019-05-02T06:10:02.224Z,95.46
2019-05-02T06:11:02.953Z,96.08
2019-05-02T06:12:01.938Z,96.03
2019-05-02T06:13:05.233Z,95.72
2019-05-02T06:14:02.910Z,95.01
2019-05-02T06:15:03.759Z,94.39
2019-05-02T06:16:03.220Z,94.70
2019-05-02T06:17:01.923Z,94.08
2019-05-02T06:18:04.814Z,94.49
2019-05-02T06:19:01.858Z,94.90
2019-05-02T06:20:01.847Z,95.21
2019-05-02T06:21:03.453Z,94.39
2019-05-02T06:22:02.883Z,94.85
2019-05-02T06:23:01.861Z,94.04
2019-05-02T06:24:01.809Z,93.12
2019-05-02T06:25:01.812Z,93.63
2019-05-02T06:26:07.910Z,94.04
2019-05-02T06:27:02.787Z,92.29
2019-05-02T06:28:05.184Z,92.60
2019-05-02T06:29:01.787Z,92.19
2019-05-02T06:30:01.750Z,92.50
2019-05-02T06:31:02.120Z,92.66
2019-05-02T06:32:02.710Z,92.66
2019-05-02T06:33:01.737Z,91.78
2019-05-02T06:34:02.088Z,91.94
2019-05-02T06:35:01.712Z,91.33
2019-05-02T06:36:02.507Z,91.22
2019-05-02T06:37:01.669Z,91.12
2019-05-02T06:38:01.668Z,91.02
2019-05-02T06:39:01.648Z,90.71
2019-05-02T06:40:03.054Z,91.12
2019-05-02T06:41:02.675Z,90.81
2019-05-02T06:42:01.629Z,90.36
2019-05-02T06:43:04.227Z,90.05
2019-05-02T06:44:02.599Z,90.26
2019-05-02T06:45:01.587Z,90.16
2019-05-02T06:46:14.902Z,90.26
2019-05-02T06:47:04.277Z,89.64
2019-05-02T06:48:01.556Z,89.54
2019-05-02T06:49:01.538Z,89.33
2019-05-02T06:50:02.773Z,89.64
2019-05-02T06:51:01.537Z,89.84
2019-05-02T06:52:01.534Z,89.75
2019-05-02T06:53:04.363Z,89.33
2019-05-02T06:54:02.472Z,88.92
2019-05-02T06:55:01.468Z,88.31
2019-05-02T06:56:01.469Z,88.62
2019-05-02T06:57:01.517Z,88.41
2019-05-02T06:58:02.890Z,88.41
2019-05-02T06:59:01.463Z,88.62
2019-05-02T07:00:01.418Z,88.10
2019-05-02T07:01:01.409Z,87.28
2019-05-02T07:02:01.401Z,87.49
2019-05-02T07:03:05.129Z,88.00
2019-05-02T07:04:04.261Z,88.31
2019-05-02T07:05:01.361Z,87.28
2019-05-02T07:06:02.742Z,87.59
2019-05-02T07:07:01.497Z,87.49
2019-05-02T07:08:01.356Z,87.49
2019-05-02T07:09:01.607Z,87.79
2019-05-02T07:10:01.302Z,88.00
2019-05-02T07:11:03.136Z,88.10
2019-05-02T07:12:01.676Z,87.85
2019-05-02T07:13:09.946Z,87.45
2019-05-02T07:14:12.973Z,87.04
2019-05-02T07:15:03.861Z,86.73
2019-05-02T07:16:01.236Z,86.83
2019-05-02T07:17:01.235Z,87.70
2019-05-02T07:18:05.440Z,87.38
2019-05-02T07:19:02.203Z,87.34
2019-05-02T07:20:04.102Z,86.87
2019-05-02T07:21:01.196Z,87.18
2019-05-02T07:22:04.192Z,87.08
2019-05-02T07:23:01.217Z,87.18
2019-05-02T07:24:01.195Z,87.18
2019-05-02T07:25:01.931Z,87.28
2019-05-02T07:26:02.134Z,87.49
2019-05-02T07:27:02.542Z,88.10
2019-05-02T07:28:04.655Z,87.38
2019-05-02T07:29:02.123Z,87.38
2019-05-02T07:30:01.123Z,88.00
2019-05-02T07:31:01.110Z,87.28
2019-05-02T07:32:01.111Z,87.38
2019-05-02T07:33:02.309Z,87.70
2019-05-02T07:34:01.094Z,87.49
2019-05-02T07:35:01.038Z,87.90
2019-05-02T07:36:01.461Z,87.24
2019-05-02T07:37:01.008Z,87.45
2019-05-02T07:38:01.017Z,87.55
2019-05-02T07:39:05.232Z,87.34
2019-05-02T07:40:01.991Z,87.14
2019-05-02T07:41:01.016Z,87.14
2019-05-02T07:42:05.971Z,87.34
2019-05-02T07:43:01.942Z,86.58
2019-05-02T07:44:00.953Z,86.38
2019-05-02T07:45:04.417Z,86.90
2019-05-02T07:46:01.922Z,86.18
2019-05-02T07:47:02.448Z,86.28
2019-05-02T07:48:01.540Z,86.48
2019-05-02T07:49:00.916Z,85.77
2019-05-02T07:50:05.397Z,86.07
2019-05-02T07:51:01.860Z,86.79
2019-05-02T07:52:00.866Z,86.79
2019-05-02T07:53:04.427Z,86.69
2019-05-02T07:54:01.875Z,86.28
2019-05-02T07:55:01.165Z,86.69
2019-05-02T07:56:00.793Z,86.99
2019-05-02T07:57:02.382Z,86.28
2019-05-02T07:58:02.014Z,86.79
2019-05-02T07:59:01.797Z,86.58
2019-05-02T08:00:02.603Z,86.28
2019-05-02T08:01:00.773Z,85.72
2019-05-02T08:02:00.745Z,85.22
2019-05-02T08:03:00.735Z,85.22
2019-05-02T08:04:04.459Z,85.31
2019-05-02T08:05:00.732Z,85.17
2019-05-02T08:06:00.720Z,83.64
2019-05-02T08:07:00.703Z,83.64
2019-05-02T08:08:00.682Z,84.01
2019-05-02T08:09:01.625Z,83.70
2019-05-02T08:10:01.683Z,83.91
2019-05-02T08:11:02.884Z,83.56
2019-05-02T08:12:00.613Z,82.95
2019-05-02T08:13:00.643Z,83.25
2019-05-02T08:14:00.686Z,82.75
2019-05-02T08:15:00.614Z,82.37
2019-05-02T08:16:00.602Z,82.57
2019-05-02T08:17:05.846Z,82.78
2019-05-02T08:18:01.652Z,82.54
2019-05-02T08:19:04.966Z,82.95
2019-05-02T08:20:00.560Z,82.43
2019-05-02T08:21:00.532Z,82.48
2019-05-02T08:22:04.713Z,82.75
2019-05-02T08:23:01.511Z,82.89
2019-05-02T08:24:02.179Z,83.19
2019-05-02T08:25:00.497Z,83.05
2019-05-02T08:26:00.500Z,82.13
2019-05-02T08:27:00.470Z,81.96
2019-05-02T08:28:00.482Z,82.75
2019-05-02T08:29:00.435Z,82.64
2019-05-02T08:30:04.309Z,82.03
2019-05-02T08:31:01.440Z,82.09
2019-05-02T08:32:00.404Z,82.29
2019-05-02T08:33:00.404Z,81.65
2019-05-02T08:34:00.428Z,81.95
2019-05-02T08:35:00.381Z,80.28
2019-05-02T08:36:00.363Z,81.40
2019-05-02T08:37:03.388Z,79.57
2019-05-02T08:38:00.352Z,79.36
2019-05-02T08:39:00.331Z,80.11
2019-05-02T08:40:00.329Z,80.48
2019-05-02T08:41:00.317Z,80.28
2019-05-02T08:42:00.305Z,80.07
2019-05-02T08:43:03.695Z,79.66
2019-05-02T08:44:01.262Z,79.66
2019-05-02T08:45:00.988Z,79.66
2019-05-02T08:46:00.296Z,79.52
2019-05-02T08:47:00.249Z,78.61
2019-05-02T08:48:04.844Z,79.43
2019-05-02T08:49:01.240Z,79.73
2019-05-02T08:50:00.221Z,78.71
2019-05-02T08:51:00.202Z,79.12
2019-05-02T08:52:00.213Z,79.32
2019-05-02T08:53:00.220Z,79.73
2019-05-02T08:54:00.193Z,78.44
2019-05-02T08:55:04.357Z,78.85
2019-05-02T08:56:01.142Z,80.48
2019-05-02T08:57:00.647Z,80.07
2019-05-02T08:58:00.141Z,79.73
2019-05-02T08:59:00.113Z,78.61
2019-05-02T09:00:01.370Z,78.41
2019-05-02T09:01:00.103Z,79.22
2019-05-02T09:02:00.082Z,78.20
2019-05-02T09:03:02.590Z,78.91
2019-05-02T09:04:00.062Z,78.61
2019-05-02T09:05:04.667Z,78.61
2019-05-02T09:06:05.890Z,78.41
2019-05-02T09:07:01.057Z,78.67
2019-05-02T09:08:00.051Z,77.45
2019-05-02T09:09:00.023Z,77.51
2019-05-02T09:10:00.163Z,79.14
2019-05-02T09:11:01.070Z,76.80
2019-05-02T09:12:11.395Z,77.27
2019-05-02T09:13:02.675Z,75.60
2019-05-02T09:14:01.945Z,74.38
2019-05-02T09:14:59.922Z,75.44
2019-05-02T09:16:02.781Z,76.25
2019-05-02T09:17:08.618Z,75.71
2019-05-02T09:18:02.685Z,75.57
2019-05-02T09:18:59.889Z,75.43
2019-05-02T09:20:04.969Z,72.38
2019-05-02T09:21:02.071Z,72.28
2019-05-02T09:21:59.914Z,70.82
2019-05-02T09:23:01.617Z,72.04
2019-05-02T09:23:59.832Z,71.84
2019-05-02T09:25:02.107Z,71.73
2019-05-02T09:25:59.814Z,70.79
2019-05-02T09:26:59.823Z,71.40
2019-05-02T09:28:01.735Z,71.23
2019-05-02T09:29:01.710Z,69.06
2019-05-02T09:30:02.739Z,68.99
2019-05-02T09:31:05.025Z,70.42
2019-05-02T09:32:02.132Z,71.36
2019-05-02T09:33:02.843Z,71.91
2019-05-02T09:34:02.548Z,70.96
2019-05-02T09:35:02.351Z,72.11
2019-05-02T09:36:02.378Z,69.91
2019-05-02T09:36:59.750Z,67.58
2019-05-02T09:38:01.638Z,68.70
2019-05-02T09:38:59.710Z,67.50
2019-05-02T09:40:02.047Z,70.08
2019-05-02T09:41:13.822Z,65.86
2019-05-02T09:42:02.174Z,67.44
2019-05-02T09:43:02.201Z,69.23
2019-05-02T09:43:59.636Z,71.02
2019-05-02T09:44:59.618Z,72.01
2019-05-02T09:45:59.605Z,66.86
2019-05-02T09:46:59.574Z,65.82
2019-05-02T09:48:05.182Z,66.49
2019-05-02T09:49:02.881Z,69.10
2019-05-02T09:49:59.605Z,68.93
2019-05-02T09:51:04.527Z,68.83
2019-05-02T09:52:01.280Z,67.95
2019-05-02T09:53:01.700Z,67.08
2019-05-02T09:54:04.698Z,68.56
2019-05-02T09:55:02.751Z,68.90
2019-05-02T09:55:59.492Z,65.89
2019-05-02T09:56:59.474Z,67.68
2019-05-02T09:57:59.499Z,68.09
2019-05-02T09:59:04.825Z,66.94
2019-05-02T10:00:02.156Z,65.80
2019-05-02T10:00:59.440Z,67.14
2019-05-02T10:01:59.432Z,67.47
2019-05-02T10:02:59.415Z,65.59
2019-05-02T10:03:59.487Z,64.79
2019-05-02T10:04:59.432Z,64.45
2019-05-02T10:05:59.393Z,65.70
2019-05-02T10:06:59.453Z,64.58
2019-05-02T10:08:03.120Z,67.27
2019-05-02T10:09:02.631Z,68.83
2019-05-02T10:10:03.115Z,69.47
2019-05-02T10:11:02.619Z,69.10
2019-05-02T10:11:59.348Z,65.50
2019-05-02T10:12:59.311Z,62.43
2019-05-02T10:13:59.303Z,64.79
2019-05-02T10:14:59.327Z,64.56
2019-05-02T10:15:59.274Z,64.49
2019-05-02T10:17:05.133Z,63.13
2019-05-02T10:18:08.686Z,64.64
2019-05-02T10:19:00.498Z,65.48
2019-05-02T10:20:02.029Z,65.75
2019-05-02T10:20:59.232Z,67.81
2019-05-02T10:21:59.203Z,67.71
2019-05-02T10:22:59.191Z,69.20
2019-05-02T10:24:00.864Z,68.42
2019-05-02T10:24:59.186Z,69.09
2019-05-02T10:25:59.183Z,69.23
2019-05-02T10:27:04.297Z,72.99
2019-05-02T10:28:02.142Z,70.79
2019-05-02T10:28:59.135Z,71.30
2019-05-02T10:30:08.207Z,70.62
2019-05-02T10:31:02.086Z,71.20
2019-05-02T10:31:59.111Z,68.38
2019-05-02T10:32:59.119Z,68.89
2019-05-02T10:33:59.061Z,69.74
2019-05-02T10:34:59.076Z,71.19
2019-05-02T10:35:59.105Z,70.28
2019-05-02T10:37:00.401Z,71.50
2019-05-02T10:37:59.055Z,70.96
2019-05-02T10:38:59.399Z,69.98
2019-05-02T10:39:59.012Z,68.96
2019-05-02T10:41:01.823Z,70.48
2019-05-02T10:42:01.993Z,68.66
2019-05-02T10:42:58.975Z,70.25
2019-05-02T10:43:59.621Z,71.91
2019-05-02T10:44:58.988Z,68.76
2019-05-02T10:45:58.934Z,71.44
2019-05-02T10:46:58.994Z,65.83
2019-05-02T10:47:58.926Z,65.12
2019-05-02T10:48:58.914Z,68.13
2019-05-02T10:49:58.904Z,65.64
2019-05-02T10:50:58.876Z,63.34
2019-05-02T10:51:58.899Z,64.48
2019-05-02T10:53:03.492Z,65.19
2019-05-02T10:53:59.855Z,65.53
2019-05-02T10:54:58.855Z,69.48
2019-05-02T10:55:58.841Z,64.83
2019-05-02T10:56:58.843Z,63.48
2019-05-02T10:57:58.842Z,62.54
2019-05-02T10:58:58.807Z,63.68
2019-05-02T10:59:58.808Z,64.32
2019-05-02T11:00:58.786Z,68.77
2019-05-02T11:01:58.773Z,63.51
2019-05-02T11:02:58.775Z,66.14
2019-05-02T11:03:58.733Z,64.28
2019-05-02T11:04:58.741Z,66.20
2019-05-02T11:06:05.640Z,66.33
2019-05-02T11:06:59.717Z,64.12
2019-05-02T11:08:04.715Z,64.67
2019-05-02T11:08:59.697Z,60.53
2019-05-02T11:10:03.145Z,61.11
2019-05-02T11:10:59.657Z,59.27
2019-05-02T11:11:58.658Z,58.64
2019-05-02T11:12:58.665Z,58.23
2019-05-02T11:14:01.045Z,56.95
2019-05-02T11:14:59.634Z,60.24
2019-05-02T11:15:58.604Z,61.96
2019-05-02T11:16:58.609Z,64.25
2019-05-02T11:17:58.616Z,65.84
2019-05-02T11:18:58.599Z,62.25
2019-05-02T11:19:58.570Z,57.70
2019-05-02T11:20:58.962Z,56.77
2019-05-02T11:21:59.246Z,58.12
2019-05-02T11:22:58.563Z,55.48
2019-05-02T11:23:58.664Z,55.38
2019-05-02T11:24:58.565Z,54.30
2019-05-02T11:25:58.507Z,54.91
2019-05-02T11:26:58.497Z,56.01
2019-05-02T11:28:05.451Z,56.44
2019-05-02T11:28:59.497Z,54.40
2019-05-02T11:29:58.468Z,54.78
2019-05-02T11:31:02.602Z,54.55
2019-05-02T11:31:59.443Z,58.14
2019-05-02T11:32:58.447Z,54.43
2019-05-02T11:33:58.456Z,55.43
2019-05-02T11:34:58.452Z,53.59
2019-05-02T11:35:58.428Z,54.22
2019-05-02T11:36:58.398Z,55.10
2019-05-02T11:37:58.378Z,52.84
2019-05-02T11:39:05.402Z,55.75
2019-05-02T11:40:01.357Z,53.22
2019-05-02T11:40:58.364Z,52.07
2019-05-02T11:41:58.386Z,51.99
2019-05-02T11:43:02.868Z,52.19
2019-05-02T11:43:59.330Z,52.51
2019-05-02T11:44:58.307Z,55.93
2019-05-02T11:46:05.588Z,55.96
2019-05-02T11:46:59.279Z,53.59
2019-05-02T11:48:02.037Z,55.75
2019-05-02T11:48:59.274Z,50.51
2019-05-02T11:49:58.239Z,52.14
2019-05-02T11:50:58.248Z,53.00
2019-05-02T11:51:58.232Z,51.97
2019-05-02T11:52:58.256Z,51.76
2019-05-02T11:53:59.304Z,52.64
2019-05-02T11:54:59.199Z,53.60
2019-05-02T11:56:02.394Z,55.83
2019-05-02T11:56:59.190Z,55.96
2019-05-02T11:58:02.414Z,57.57
2019-05-02T11:58:59.169Z,58.70
2019-05-02T11:59:59.476Z,54.78
2019-05-02T12:01:02.859Z,56.34
2019-05-02T12:02:00.097Z,56.95
2019-05-02T12:02:58.470Z,59.63
2019-05-02T12:03:58.125Z,58.80
2019-05-02T12:04:58.101Z,59.47
2019-05-02T12:05:58.094Z,56.95
2019-05-02T12:07:01.328Z,57.65
2019-05-02T12:08:02.595Z,52.87
2019-05-02T12:08:59.052Z,52.59
2019-05-02T12:09:58.063Z,52.57
2019-05-02T12:11:00.966Z,55.55
2019-05-02T12:11:58.053Z,51.84
2019-05-02T12:12:58.003Z,54.71
2019-05-02T12:13:58.052Z,55.06
2019-05-02T12:14:58.004Z,55.49
2019-05-02T12:15:57.997Z,57.20
2019-05-02T12:16:57.975Z,57.72
2019-05-02T12:17:57.996Z,55.51
2019-05-02T12:19:08.577Z,53.30
2019-05-02T12:19:58.928Z,56.66
2019-05-02T12:20:57.936Z,54.83
2019-05-02T12:21:57.905Z,55.46
2019-05-02T12:22:57.958Z,55.91
2019-05-02T12:23:57.914Z,57.96
2019-05-02T12:24:57.872Z,57.45
2019-05-02T12:25:57.875Z,55.41
2019-05-02T12:26:57.859Z,56.54
2019-05-02T12:27:57.874Z,54.10
2019-05-02T12:28:57.868Z,56.01
2019-05-02T12:29:59.290Z,55.54
2019-05-02T12:30:57.814Z,56.62
2019-05-02T12:31:57.806Z,56.32
2019-05-02T12:32:57.816Z,57.10
2019-05-02T12:33:57.783Z,58.91
2019-05-02T12:34:57.772Z,60.72
2019-05-02T12:35:57.768Z,59.07
2019-05-02T12:36:57.746Z,57.24
2019-05-02T12:37:57.776Z,57.29
2019-05-02T12:38:57.738Z,53.55
2019-05-02T12:39:57.718Z,53.42
2019-05-02T12:40:58.004Z,52.62
2019-05-02T12:41:57.910Z,53.80
2019-05-02T12:43:02.354Z,52.89
2019-05-02T12:43:57.669Z,52.47
2019-05-02T12:44:57.695Z,50.74
2019-05-02T12:45:57.659Z,50.94
2019-05-02T12:46:57.656Z,51.84
2019-05-02T12:47:57.639Z,51.99
2019-05-02T12:48:57.657Z,49.99
2019-05-02T12:49:57.613Z,49.89
2019-05-02T12:50:57.637Z,51.46
2019-05-02T12:51:57.633Z,52.64